Time,TemperatureF,DewpointF,PressureIn,WindDirection,WindDirectionDegrees,WindSpeedMPH,WindSpeedGustMPH,Humidity,HourlyPrecipIn,Conditions,Clouds,dailyrainin,SoftwareType,DateUTC
2013-02-12 00:00:00,50.5,49.9,30.06,NNW,338,0.0,0.0,98,0.12,,---,0.00,VWS V14.01,2013-02-12 06:00:00,
2013-02-12 00:05:00,50.5,49.9,30.06,ESE,112,0.0,0.0,98,0.08,,---,0.00,VWS V14.01,2013-02-12 06:05:00,
2013-02-12 00:10:00,50.5,49.9,30.06,NE,45,0.0,0.0,98,0.13,,---,0.05,VWS V14.01,2013-02-12 06:10:00,
2013-02-12 00:15:00,50.5,49.9,30.03,ESE,112,0.0,1.1,98,0.13,,---,0.05,VWS V14.01,2013-02-12 06:15:00,
2013-02-12 00:20:00,50.5,49.9,30.03,WNW,292,0.0,0.0,98,0.09,,---,0.05,VWS V14.01,2013-02-12 06:20:00,
2013-02-12 00:25:00,50.5,49.9,30.03,NNW,338,0.0,0.0,98,0.09,,---,0.05,VWS V14.01,2013-02-12 06:25:00,
2013-02-12 00:30:00,50.5,49.9,30.06,WNW,292,1.3,2.5,98,0.09,,---,0.05,VWS V14.01,2013-02-12 06:30:00,
2013-02-12 00:35:00,50.5,49.9,30.06,ENE,68,2.0,2.0,98,0.09,,---,0.05,VWS V14.01,2013-02-12 06:35:00,
2013-02-12 00:41:00,50.5,49.9,30.06,NNE,22,0.0,0.0,98,0.09,,---,0.05,VWS V14.01,2013-02-12 06:41:00,
2013-02-12 00:46:00,50.5,49.9,30.03,ENE,68,0.0,0.0,98,0.09,,---,0.05,VWS V14.01,2013-02-12 06:46:00,
2013-02-12 00:51:00,50.5,49.9,30.03,ENE,68,1.3,1.3,98,0.05,,---,0.05,VWS V14.01,2013-02-12 06:51:00,
2013-02-12 00:56:00,50.5,49.9,30.03,ESE,112,0.0,0.0,98,0.05,,---,0.05,VWS V14.01,2013-02-12 06:56:00,
2013-02-12 01:01:00,50.5,49.9,30.03,NNW,338,0.0,0.0,98,0.05,,---,0.05,VWS V14.01,2013-02-12 07:01:00,
2013-02-12 01:06:00,50.5,49.9,30.03,WNW,292,2.7,2.9,98,0.05,,---,0.05,VWS V14.01,2013-02-12 07:06:00,
2013-02-12 01:11:00,50.5,49.9,30.03,WNW,292,0.9,3.4,98,0.00,,---,0.05,VWS V14.01,2013-02-12 07:11:00,
2013-02-12 01:16:00,50.5,49.9,30.09,ENE,68,0.9,2.0,98,0.00,,---,0.05,VWS V14.01,2013-02-12 07:16:00,
2013-02-12 01:21:00,50.5,49.9,30.09,SW,225,0.0,0.0,98,0.00,,---,0.05,VWS V14.01,2013-02-12 07:21:00,
2013-02-12 01:26:00,50.5,49.9,30.09,ESE,112,0.0,0.0,98,0.00,,---,0.05,VWS V14.01,2013-02-12 07:26:00,
2013-02-12 01:31:00,50.5,49.9,30.06,SE,135,1.6,2.7,98,0.04,,---,0.09,VWS V14.01,2013-02-12 07:31:00,
2013-02-12 01:36:00,50.5,49.9,30.06,ESE,112,0.0,1.6,98,0.04,,---,0.09,VWS V14.01,2013-02-12 07:36:00,
2013-02-12 01:41:00,50.5,49.9,30.06,NNW,338,1.6,1.6,98,0.04,,---,0.09,VWS V14.01,2013-02-12 07:41:00,
2013-02-12 01:46:00,50.5,49.9,30.06,NNW,338,0.0,0.0,98,0.04,,---,0.09,VWS V14.01,2013-02-12 07:46:00,
2013-02-12 01:51:00,50.5,49.9,30.06,ENE,68,0.0,0.0,98,0.04,,---,0.09,VWS V14.01,2013-02-12 07:51:00,
2013-02-12 01:56:00,50.5,49.9,30.06,SSE,158,0.0,0.0,98,0.04,,---,0.09,VWS V14.01,2013-02-12 07:56:00,
2013-02-12 02:01:00,50.5,49.9,30.03,NNE,22,0.0,0.0,98,0.04,,---,0.09,VWS V14.01,2013-02-12 08:01:00,
2013-02-12 02:06:00,50.5,49.9,30.03,North,0,0.0,0.0,98,0.04,,---,0.09,VWS V14.01,2013-02-12 08:06:00,
2013-02-12 02:11:00,50.5,49.9,30.03,NW,315,0.0,0.0,98,0.04,,---,0.09,VWS V14.01,2013-02-12 08:11:00,
2013-02-12 02:16:00,50.5,49.9,30.03,NE,45,0.0,0.0,98,0.04,,---,0.09,VWS V14.01,2013-02-12 08:16:00,
2013-02-12 02:21:00,50.5,49.9,30.03,NNW,338,0.0,0.0,98,0.04,,---,0.09,VWS V14.01,2013-02-12 08:21:00,
2013-02-12 02:26:00,50.5,49.9,30.03,NW,315,0.0,0.0,98,0.04,,---,0.09,VWS V14.01,2013-02-12 08:26:00,
2013-02-12 02:31:00,50.5,49.9,30.03,ENE,68,0.0,0.0,98,0.00,,---,0.09,VWS V14.01,2013-02-12 08:31:00,
2013-02-12 02:36:00,50.5,49.9,30.03,NNE,22,0.0,0.0,98,0.00,,---,0.09,VWS V14.01,2013-02-12 08:36:00,
2013-02-12 02:41:00,50.5,49.9,30.03,ENE,68,0.0,0.0,98,0.00,,---,0.09,VWS V14.01,2013-02-12 08:41:00,
2013-02-12 02:46:00,50.3,49.7,30.03,ENE,68,0.0,0.0,98,0.00,,---,0.09,VWS V14.01,2013-02-12 08:46:00,
2013-02-12 02:51:00,50.3,49.7,30.03,ENE,68,0.0,0.0,98,0.00,,---,0.09,VWS V14.01,2013-02-12 08:51:00,
2013-02-12 02:56:00,50.3,49.7,30.03,NNE,22,0.0,0.0,98,0.00,,---,0.09,VWS V14.01,2013-02-12 08:56:00,
2013-02-12 03:01:00,50.3,49.7,30.03,North,0,0.0,0.0,98,0.00,,---,0.09,VWS V14.01,2013-02-12 09:01:00,
2013-02-12 03:06:00,50.5,49.9,30.03,NNE,22,0.0,0.0,98,0.00,,---,0.09,VWS V14.01,2013-02-12 09:06:00,
2013-02-12 03:11:00,50.5,49.9,30.03,NNW,338,0.0,0.0,98,0.00,,---,0.09,VWS V14.01,2013-02-12 09:11:00,
2013-02-12 03:16:00,50.5,49.9,30.03,ESE,112,0.0,0.0,98,0.00,,---,0.09,VWS V14.01,2013-02-12 09:16:00,
2013-02-12 03:21:00,50.3,49.7,30.03,NNW,338,0.0,0.0,98,0.00,,---,0.09,VWS V14.01,2013-02-12 09:21:00,
2013-02-12 03:26:00,50.3,49.7,30.03,NE,45,0.0,0.0,98,0.00,,---,0.09,VWS V14.01,2013-02-12 09:26:00,
2013-02-12 03:31:00,50.3,49.7,30.03,NNE,22,0.0,0.0,98,0.00,,---,0.09,VWS V14.01,2013-02-12 09:31:00,
2013-02-12 03:36:00,50.3,49.7,30.03,ENE,68,0.0,0.0,98,0.00,,---,0.09,VWS V14.01,2013-02-12 09:36:00,
2013-02-12 03:41:00,50.3,49.7,30.03,NE,45,0.0,0.0,98,0.00,,---,0.09,VWS V14.01,2013-02-12 09:41:00,
2013-02-12 03:46:00,50.3,49.7,30.00,WNW,292,0.0,0.0,98,0.00,,---,0.09,VWS V14.01,2013-02-12 09:46:00,
2013-02-12 03:51:00,50.3,49.7,30.00,NE,45,0.0,0.0,98,0.00,,---,0.09,VWS V14.01,2013-02-12 09:51:00,
2013-02-12 03:56:00,50.3,49.7,30.00,North,0,0.0,0.0,98,0.00,,---,0.09,VWS V14.01,2013-02-12 09:56:00,
2013-02-12 04:01:00,50.1,49.6,30.00,NE,45,0.0,0.0,98,0.00,,---,0.09,VWS V14.01,2013-02-12 10:01:00,
2013-02-12 04:06:00,50.1,49.6,30.00,NE,45,0.0,1.6,98,0.00,,---,0.09,VWS V14.01,2013-02-12 10:06:00,
2013-02-12 04:11:00,50.1,49.6,30.00,ENE,68,0.0,0.0,98,0.00,,---,0.09,VWS V14.01,2013-02-12 10:11:00,
2013-02-12 04:16:00,49.9,49.4,30.00,ENE,68,0.0,0.0,98,0.00,,---,0.09,VWS V14.01,2013-02-12 10:16:00,
2013-02-12 04:21:00,49.9,49.4,30.00,NE,45,0.0,0.0,98,0.00,,---,0.09,VWS V14.01,2013-02-12 10:21:00,
2013-02-12 04:26:00,49.9,49.4,30.00,ENE,68,0.0,0.0,98,0.00,,---,0.09,VWS V14.01,2013-02-12 10:26:00,
2013-02-12 04:31:00,49.9,49.4,29.97,ENE,68,0.0,0.0,98,0.00,,---,0.09,VWS V14.01,2013-02-12 10:31:00,
2013-02-12 04:36:00,49.7,49.2,29.97,NE,45,2.2,2.2,98,0.00,,---,0.09,VWS V14.01,2013-02-12 10:36:00,
2013-02-12 04:41:00,49.7,49.2,29.97,SSE,158,0.0,0.0,98,0.00,,---,0.09,VWS V14.01,2013-02-12 10:41:00,
2013-02-12 04:46:00,49.7,49.2,29.97,WSW,248,0.0,0.0,98,0.00,,---,0.09,VWS V14.01,2013-02-12 10:46:00,
2013-02-12 04:51:00,49.7,49.2,29.97,ESE,112,0.0,0.0,98,0.00,,---,0.09,VWS V14.01,2013-02-12 10:51:00,
2013-02-12 04:56:00,49.9,49.4,29.97,ENE,68,0.0,0.0,98,0.00,,---,0.09,VWS V14.01,2013-02-12 10:56:00,
2013-02-12 05:01:00,49.9,49.4,29.97,East,90,0.9,1.6,98,0.00,,---,0.09,VWS V14.01,2013-02-12 11:01:00,
2013-02-12 05:06:00,49.9,49.4,29.97,ESE,112,0.0,0.0,98,0.00,,---,0.09,VWS V14.01,2013-02-12 11:06:00,
2013-02-12 05:11:00,49.9,49.4,29.97,SW,225,0.0,0.0,98,0.00,,---,0.09,VWS V14.01,2013-02-12 11:11:00,
2013-02-12 05:16:00,49.9,49.4,29.94,North,0,0.0,0.0,98,0.00,,---,0.09,VWS V14.01,2013-02-12 11:16:00,
2013-02-12 05:22:00,49.9,49.4,29.94,SSW,202,0.0,0.0,98,0.00,,---,0.09,VWS V14.01,2013-02-12 11:22:00,
2013-02-12 05:27:00,49.9,49.4,29.94,NNE,22,0.0,0.0,98,0.00,,---,0.09,VWS V14.01,2013-02-12 11:27:00,
2013-02-12 05:32:00,49.9,49.4,29.97,NE,45,0.0,0.0,98,0.00,,---,0.09,VWS V14.01,2013-02-12 11:32:00,
2013-02-12 05:37:00,49.9,49.4,29.97,NNW,338,0.0,0.0,98,0.00,,---,0.09,VWS V14.01,2013-02-12 11:37:00,
2013-02-12 05:42:00,49.9,49.4,29.97,ENE,68,0.0,1.6,98,0.00,,---,0.09,VWS V14.01,2013-02-12 11:42:00,
2013-02-12 05:47:00,49.9,49.4,29.97,ESE,112,0.0,0.0,98,0.00,,---,0.09,VWS V14.01,2013-02-12 11:47:00,
2013-02-12 05:52:00,49.7,49.2,29.97,NNW,338,0.9,0.9,98,0.00,,---,0.09,VWS V14.01,2013-02-12 11:52:00,
2013-02-12 05:57:00,49.7,49.2,29.97,NE,45,0.0,0.0,98,0.00,,---,0.09,VWS V14.01,2013-02-12 11:57:00,
2013-02-12 06:02:00,49.7,49.2,29.94,ESE,112,0.0,0.9,98,0.00,,---,0.09,VWS V14.01,2013-02-12 12:02:00,
2013-02-12 06:07:00,49.7,49.2,29.94,SSE,158,2.9,3.4,98,0.00,,---,0.09,VWS V14.01,2013-02-12 12:07:00,
2013-02-12 06:12:00,49.7,49.2,29.94,ESE,112,0.0,2.7,98,0.00,,---,0.09,VWS V14.01,2013-02-12 12:12:00,
2013-02-12 06:17:00,49.7,49.2,29.94,SE,135,2.7,2.7,98,0.00,,---,0.09,VWS V14.01,2013-02-12 12:17:00,
2013-02-12 06:22:00,49.7,49.2,29.94,SE,135,3.1,4.3,98,0.00,,---,0.09,VWS V14.01,2013-02-12 12:22:00,
2013-02-12 06:27:00,49.7,49.2,29.94,NNW,338,0.0,3.1,98,0.00,,---,0.09,VWS V14.01,2013-02-12 12:27:00,
2013-02-12 06:32:00,49.7,49.2,29.94,NNE,22,1.3,1.3,98,0.00,,---,0.09,VWS V14.01,2013-02-12 12:32:00,
2013-02-12 06:37:00,49.9,49.4,29.94,NNW,338,0.0,2.2,98,0.00,,---,0.09,VWS V14.01,2013-02-12 12:37:00,
2013-02-12 06:42:00,49.9,49.4,29.94,ESE,112,1.6,1.6,98,0.00,,---,0.09,VWS V14.01,2013-02-12 12:42:00,
2013-02-12 06:47:00,49.9,49.4,29.94,WNW,292,2.2,2.2,98,0.00,,---,0.09,VWS V14.01,2013-02-12 12:47:00,
2013-02-12 06:52:00,49.9,49.4,29.94,SE,135,2.0,2.5,98,0.00,,---,0.09,VWS V14.01,2013-02-12 12:52:00,
2013-02-12 06:57:00,49.9,49.4,29.94,ESE,112,0.0,0.0,98,0.00,,---,0.09,VWS V14.01,2013-02-12 12:57:00,
2013-02-12 07:02:00,49.7,49.2,29.94,SSE,158,1.6,2.2,98,0.00,,---,0.09,VWS V14.01,2013-02-12 13:02:00,
2013-02-12 07:07:00,49.7,49.2,29.94,SE,135,0.0,0.9,98,0.00,,---,0.09,VWS V14.01,2013-02-12 13:07:00,
2013-02-12 07:12:00,49.7,49.2,29.94,ESE,112,3.6,4.9,98,0.00,,---,0.09,VWS V14.01,2013-02-12 13:12:00,
2013-02-12 07:17:00,49.7,49.2,29.88,SSE,158,4.0,4.0,98,0.00,,---,0.09,VWS V14.01,2013-02-12 13:17:00,
2013-02-12 07:22:00,49.7,49.2,29.88,ESE,112,3.1,3.1,98,0.00,,---,0.09,VWS V14.01,2013-02-12 13:22:00,
2013-02-12 07:27:00,49.7,48.9,29.88,ESE,112,2.5,6.3,97,0.00,,---,0.09,VWS V14.01,2013-02-12 13:27:00,
2013-02-12 07:32:00,49.6,48.8,29.91,SSE,158,4.3,4.3,97,0.00,,---,0.09,VWS V14.01,2013-02-12 13:32:00,
2013-02-12 07:37:00,49.6,49.0,29.91,SE,135,2.2,2.2,98,0.00,,---,0.09,VWS V14.01,2013-02-12 13:37:00,
2013-02-12 07:42:00,49.6,49.0,29.91,ESE,112,1.1,2.5,98,0.04,,---,0.13,VWS V14.01,2013-02-12 13:42:00,
2013-02-12 07:47:00,49.6,49.0,29.88,SSE,158,0.0,2.2,98,0.04,,---,0.13,VWS V14.01,2013-02-12 13:47:00,
2013-02-12 07:52:00,49.6,49.0,29.88,SSE,158,0.0,1.6,98,0.04,,---,0.13,VWS V14.01,2013-02-12 13:52:00,
2013-02-12 07:57:00,49.4,48.8,29.88,NNE,22,0.0,0.0,98,0.04,,---,0.13,VWS V14.01,2013-02-12 13:57:00,
2013-02-12 08:02:00,49.6,49.0,29.94,SSE,158,2.9,4.0,98,0.04,,---,0.13,VWS V14.01,2013-02-12 14:02:00,
2013-02-12 08:07:00,49.6,49.0,29.94,SSE,158,2.5,2.9,98,0.08,,---,0.17,VWS V14.01,2013-02-12 14:07:00,
2013-02-12 08:12:00,49.4,48.8,29.94,ESE,112,2.7,3.1,98,0.08,,---,0.17,VWS V14.01,2013-02-12 14:12:00,
2013-02-12 08:17:00,49.4,48.8,29.94,SSW,202,1.1,1.1,98,0.12,,---,0.21,VWS V14.01,2013-02-12 14:17:00,
2013-02-12 08:22:00,49.4,48.8,29.94,WNW,292,2.0,2.0,98,0.12,,---,0.21,VWS V14.01,2013-02-12 14:22:00,
2013-02-12 08:27:00,49.4,48.8,29.94,NNW,338,2.7,3.4,98,0.16,,---,0.25,VWS V14.01,2013-02-12 14:27:00,
2013-02-12 08:32:00,49.2,48.7,29.94,SE,135,1.6,2.5,98,0.16,,---,0.25,VWS V14.01,2013-02-12 14:32:00,
2013-02-12 08:37:00,49.2,48.7,29.94,NE,45,2.0,2.0,98,0.24,,---,0.33,VWS V14.01,2013-02-12 14:37:00,
2013-02-12 08:42:00,49.2,48.7,29.94,SSE,158,0.0,0.0,98,0.29,,---,0.42,VWS V14.01,2013-02-12 14:42:00,
2013-02-12 08:47:00,49.2,48.7,29.97,NNW,338,1.6,1.6,98,0.33,,---,0.46,VWS V14.01,2013-02-12 14:47:00,
2013-02-12 08:52:00,49.2,48.7,29.97,NNW,338,0.0,1.3,98,0.41,,---,0.54,VWS V14.01,2013-02-12 14:52:00,
2013-02-12 08:57:00,49.2,48.7,29.97,ENE,68,0.0,0.0,98,0.41,,---,0.54,VWS V14.01,2013-02-12 14:57:00,
2013-02-12 09:02:00,49.2,48.7,29.94,SSE,158,4.5,4.5,98,0.46,,---,0.59,VWS V14.01,2013-02-12 15:02:00,
2013-02-12 09:07:00,49.2,48.7,29.94,NNE,22,0.0,3.4,98,0.46,,---,0.63,VWS V14.01,2013-02-12 15:07:00,
2013-02-12 09:12:00,49.2,48.7,29.94,NNW,338,0.0,0.0,98,0.46,,---,0.63,VWS V14.01,2013-02-12 15:12:00,
2013-02-12 09:17:00,49.2,48.7,29.94,ESE,112,0.0,0.0,98,0.42,,---,0.63,VWS V14.01,2013-02-12 15:17:00,
2013-02-12 09:22:00,49.2,48.7,29.94,SE,135,1.6,1.6,98,0.42,,---,0.63,VWS V14.01,2013-02-12 15:22:00,
2013-02-12 09:27:00,49.2,48.7,29.94,NE,45,2.9,2.9,98,0.42,,---,0.67,VWS V14.01,2013-02-12 15:27:00,
2013-02-12 09:32:00,49.2,48.7,29.91,ESE,112,1.3,1.3,98,0.42,,---,0.67,VWS V14.01,2013-02-12 15:32:00,
2013-02-12 09:37:00,49.2,48.7,29.91,ESE,112,0.0,0.0,98,0.37,,---,0.67,VWS V14.01,2013-02-12 15:37:00,
2013-02-12 09:42:00,49.2,48.7,29.91,ENE,68,1.3,1.3,98,0.29,,---,0.71,VWS V14.01,2013-02-12 15:42:00,
2013-02-12 09:47:00,49.2,48.7,29.88,ESE,112,0.0,0.0,98,0.25,,---,0.71,VWS V14.01,2013-02-12 15:47:00,
2013-02-12 09:52:00,49.2,48.7,29.88,ENE,68,1.6,1.6,98,0.17,,---,0.71,VWS V14.01,2013-02-12 15:52:00,
2013-02-12 09:57:00,49.2,48.7,29.88,WNW,292,0.9,0.9,98,0.21,,---,0.75,VWS V14.01,2013-02-12 15:57:00,
2013-02-12 10:02:00,49.2,48.7,29.88,SW,225,0.0,0.0,98,0.16,,---,0.75,VWS V14.01,2013-02-12 16:02:00,
2013-02-12 10:07:00,49.2,48.7,29.88,ESE,112,0.0,0.0,98,0.12,,---,0.75,VWS V14.01,2013-02-12 16:07:00,
2013-02-12 10:12:00,49.4,48.8,29.88,SE,135,3.8,4.3,98,0.24,,---,0.87,VWS V14.01,2013-02-12 16:12:00,
2013-02-12 10:17:00,49.2,48.7,29.91,South,180,0.9,1.6,98,0.50,,---,1.13,VWS V14.01,2013-02-12 16:17:00,
2013-02-12 10:22:00,49.2,48.7,29.91,ESE,112,3.4,3.4,98,0.62,,---,1.25,VWS V14.01,2013-02-12 16:22:00,
2013-02-12 10:27:00,49.4,48.8,29.91,ESE,112,5.4,6.0,98,0.58,,---,1.25,VWS V14.01,2013-02-12 16:27:00,
2013-02-12 10:32:00,49.6,49.0,29.88,SSE,158,4.9,5.4,98,0.62,,---,1.29,VWS V14.01,2013-02-12 16:32:00,
2013-02-12 10:37:00,49.6,49.0,29.88,ESE,112,3.4,3.8,98,0.62,,---,1.29,VWS V14.01,2013-02-12 16:37:00,
2013-02-12 10:42:00,49.6,49.0,29.88,ENE,68,2.5,4.0,98,0.58,,---,1.29,VWS V14.01,2013-02-12 16:42:00,
2013-02-12 10:47:00,49.7,49.2,29.88,East,90,4.0,4.0,98,0.58,,---,1.29,VWS V14.01,2013-02-12 16:47:00,
2013-02-12 10:52:00,49.7,49.2,29.88,North,0,2.9,3.4,98,0.58,,---,1.29,VWS V14.01,2013-02-12 16:52:00,
2013-02-12 10:57:00,49.9,49.4,29.88,ESE,112,2.2,4.3,98,0.54,,---,1.29,VWS V14.01,2013-02-12 16:57:00,
2013-02-12 11:02:00,50.1,49.6,29.88,ENE,68,0.0,1.3,98,0.54,,---,1.29,VWS V14.01,2013-02-12 17:02:00,
2013-02-12 11:08:00,50.3,49.7,29.88,SSW,202,3.6,3.6,98,0.54,,---,1.29,VWS V14.01,2013-02-12 17:08:00,
2013-02-12 11:13:00,50.3,49.7,29.88,SSW,202,0.0,0.9,98,0.42,,---,1.29,VWS V14.01,2013-02-12 17:13:00,
2013-02-12 11:18:00,50.5,49.9,29.85,ESE,112,1.6,2.5,98,0.16,,---,1.29,VWS V14.01,2013-02-12 17:18:00,
2013-02-12 11:23:00,50.6,50.1,29.85,SSE,158,4.0,4.0,98,0.08,,---,1.29,VWS V14.01,2013-02-12 17:23:00,
2013-02-12 11:28:00,50.8,50.3,29.82,East,90,2.0,4.0,98,0.04,,---,1.29,VWS V14.01,2013-02-12 17:28:00,
2013-02-12 11:33:00,51.0,50.5,29.82,ESE,112,4.3,6.0,98,0.00,,---,1.29,VWS V14.01,2013-02-12 17:33:00,
2013-02-12 11:38:00,51.2,50.6,29.82,ESE,112,2.9,4.0,98,0.00,,---,1.29,VWS V14.01,2013-02-12 17:38:00,
2013-02-12 11:43:00,51.2,50.6,29.85,SSE,158,3.4,3.4,98,0.00,,---,1.29,VWS V14.01,2013-02-12 17:43:00,
2013-02-12 11:48:00,51.2,50.6,29.85,SE,135,2.7,2.7,98,0.00,,---,1.29,VWS V14.01,2013-02-12 17:48:00,
2013-02-12 11:53:00,51.2,50.6,29.85,NNW,338,4.7,4.7,98,0.00,,---,1.29,VWS V14.01,2013-02-12 17:53:00,
2013-02-12 11:58:00,51.4,50.8,29.85,NNW,338,5.6,6.0,98,0.00,,---,1.29,VWS V14.01,2013-02-12 17:58:00,
2013-02-12 12:03:00,51.4,50.8,29.88,NW,315,3.1,3.1,98,0.00,,---,1.29,VWS V14.01,2013-02-12 18:03:00,
2013-02-12 12:08:00,51.2,50.6,29.88,ESE,112,0.0,2.5,98,0.00,,---,1.29,VWS V14.01,2013-02-12 18:08:00,
2013-02-12 12:13:00,51.2,50.6,29.82,ESE,112,1.6,2.7,98,0.00,,---,1.29,VWS V14.01,2013-02-12 18:13:00,
2013-02-12 12:18:00,51.2,50.6,29.82,WSW,248,2.9,2.9,98,0.00,,---,1.29,VWS V14.01,2013-02-12 18:18:00,
2013-02-12 12:23:00,51.2,50.6,29.82,West,270,1.1,2.2,98,0.00,,---,1.29,VWS V14.01,2013-02-12 18:23:00,
2013-02-12 12:28:00,51.2,50.6,29.79,ENE,68,2.5,2.5,98,0.00,,---,1.29,VWS V14.01,2013-02-12 18:28:00,
2013-02-12 12:33:00,51.2,50.6,29.79,ESE,112,2.2,2.9,98,0.00,,---,1.29,VWS V14.01,2013-02-12 18:33:00,
2013-02-12 12:38:00,51.2,50.6,29.79,ESE,112,2.5,2.5,98,0.00,,---,1.29,VWS V14.01,2013-02-12 18:38:00,
2013-02-12 12:43:00,51.2,50.6,29.79,WSW,248,0.9,0.9,98,0.00,,---,1.29,VWS V14.01,2013-02-12 18:43:00,
2013-02-12 12:48:00,51.2,50.6,29.82,NNE,22,3.1,3.4,98,0.00,,---,1.29,VWS V14.01,2013-02-12 18:48:00,
2013-02-12 12:53:00,51.2,50.6,29.82,WNW,292,1.1,2.7,98,0.00,,---,1.29,VWS V14.01,2013-02-12 18:53:00,
2013-02-12 12:58:00,51.2,50.6,29.82,North,0,2.2,3.1,98,0.00,,---,1.29,VWS V14.01,2013-02-12 18:58:00,
2013-02-12 13:03:00,51.2,50.6,29.82,NNE,22,0.9,2.5,98,0.00,,---,1.29,VWS V14.01,2013-02-12 19:03:00,
2013-02-12 13:08:00,51.2,50.6,29.82,ENE,68,0.0,0.0,98,0.00,,---,1.29,VWS V14.01,2013-02-12 19:08:00,
2013-02-12 13:13:00,51.0,50.5,29.79,SSE,158,3.6,3.6,98,0.00,,---,1.29,VWS V14.01,2013-02-12 19:13:00,
2013-02-12 13:18:00,51.0,50.5,29.79,ESE,112,2.2,3.6,98,0.00,,---,1.29,VWS V14.01,2013-02-12 19:18:00,
2013-02-12 13:23:00,51.2,50.6,29.79,ESE,112,0.9,3.1,98,0.04,,---,1.33,VWS V14.01,2013-02-12 19:23:00,
2013-02-12 13:28:00,51.2,50.6,29.76,NE,45,0.0,2.7,98,0.04,,---,1.33,VWS V14.01,2013-02-12 19:28:00,
2013-02-12 13:33:00,51.2,50.6,29.76,SE,135,2.7,2.9,98,0.04,,---,1.33,VWS V14.01,2013-02-12 19:33:00,
2013-02-12 13:38:00,51.2,50.6,29.76,ENE,68,0.0,2.5,98,0.04,,---,1.33,VWS V14.01,2013-02-12 19:38:00,
2013-02-12 13:43:00,51.2,50.6,29.76,ESE,112,0.9,2.0,98,0.04,,---,1.33,VWS V14.01,2013-02-12 19:43:00,
2013-02-12 13:48:00,51.2,50.6,29.76,NNW,338,0.9,2.2,98,0.04,,---,1.33,VWS V14.01,2013-02-12 19:48:00,
2013-02-12 13:53:00,51.2,50.6,29.76,WSW,248,1.3,1.3,98,0.04,,---,1.33,VWS V14.01,2013-02-12 19:53:00,
2013-02-12 13:58:00,51.2,50.6,29.79,NNW,338,2.5,2.5,98,0.04,,---,1.33,VWS V14.01,2013-02-12 19:58:00,
2013-02-12 14:03:00,51.2,50.6,29.79,ESE,112,4.5,4.5,98,0.04,,---,1.33,VWS V14.01,2013-02-12 20:03:00,
2013-02-12 14:08:00,51.4,50.8,29.79,WNW,292,2.9,2.9,98,0.04,,---,1.33,VWS V14.01,2013-02-12 20:08:00,
2013-02-12 14:13:00,51.2,50.6,29.79,NNW,338,6.3,6.3,98,0.04,,---,1.33,VWS V14.01,2013-02-12 20:13:00,
2013-02-12 14:18:00,51.2,50.6,29.79,North,0,0.0,2.5,98,0.08,,---,1.37,VWS V14.01,2013-02-12 20:18:00,
2013-02-12 14:23:00,51.4,50.8,29.79,ENE,68,1.6,2.2,98,0.08,,---,1.37,VWS V14.01,2013-02-12 20:23:00,
2013-02-12 14:28:00,51.5,51.0,29.76,ENE,68,0.0,0.0,98,0.04,,---,1.37,VWS V14.01,2013-02-12 20:28:00,
2013-02-12 14:33:00,51.7,51.2,29.76,West,270,3.4,3.4,98,0.04,,---,1.37,VWS V14.01,2013-02-12 20:33:00,
2013-02-12 14:38:00,51.5,51.0,29.76,SSE,158,1.6,2.2,98,0.04,,---,1.37,VWS V14.01,2013-02-12 20:38:00,
2013-02-12 14:43:00,51.7,51.2,29.76,SE,135,0.0,2.2,98,0.04,,---,1.37,VWS V14.01,2013-02-12 20:43:00,
2013-02-12 14:48:00,51.9,51.4,29.76,ENE,68,0.0,2.0,98,0.08,,---,1.41,VWS V14.01,2013-02-12 20:48:00,
2013-02-12 14:53:00,52.1,51.5,29.76,ESE,112,3.6,3.6,98,0.08,,---,1.41,VWS V14.01,2013-02-12 20:53:00,
2013-02-12 14:58:00,52.3,51.7,29.76,ESE,112,0.0,0.0,98,0.08,,---,1.41,VWS V14.01,2013-02-12 20:58:00,
2013-02-12 15:03:00,52.1,51.5,29.74,ESE,112,0.0,0.0,98,0.08,,---,1.41,VWS V14.01,2013-02-12 21:03:00,
2013-02-12 15:08:00,52.1,51.5,29.74,ESE,112,1.6,1.6,98,0.08,,---,1.41,VWS V14.01,2013-02-12 21:08:00,
2013-02-12 15:13:00,51.9,51.4,29.74,NE,45,0.0,0.9,98,0.08,,---,1.41,VWS V14.01,2013-02-12 21:13:00,
2013-02-12 15:18:00,51.9,51.4,29.74,ESE,112,0.0,0.0,98,0.04,,---,1.41,VWS V14.01,2013-02-12 21:18:00,
2013-02-12 15:23:00,52.1,51.5,29.74,ENE,68,0.0,0.0,98,0.04,,---,1.41,VWS V14.01,2013-02-12 21:23:00,
2013-02-12 15:28:00,52.1,51.5,29.74,ESE,112,0.0,2.0,98,0.04,,---,1.41,VWS V14.01,2013-02-12 21:28:00,
2013-02-12 15:33:00,52.1,51.5,29.74,ESE,112,0.0,0.0,98,0.04,,---,1.41,VWS V14.01,2013-02-12 21:33:00,
2013-02-12 15:38:00,52.1,51.5,29.74,WNW,292,0.0,0.0,98,0.04,,---,1.41,VWS V14.01,2013-02-12 21:38:00,
2013-02-12 15:43:00,51.9,51.4,29.74,ENE,68,3.4,3.4,98,0.04,,---,1.41,VWS V14.01,2013-02-12 21:43:00,
2013-02-12 15:48:00,51.9,51.4,29.74,NNE,22,0.0,2.2,98,0.00,,---,1.41,VWS V14.01,2013-02-12 21:48:00,
2013-02-12 15:53:00,51.9,51.4,29.74,ESE,112,1.6,2.7,98,0.00,,---,1.41,VWS V14.01,2013-02-12 21:53:00,
2013-02-12 15:58:00,51.9,51.4,29.74,ESE,112,1.6,2.0,98,0.00,,---,1.41,VWS V14.01,2013-02-12 21:58:00,
2013-02-12 16:04:00,51.9,51.4,29.74,WSW,248,0.0,0.0,98,0.00,,---,1.41,VWS V14.01,2013-02-12 22:04:00,
2013-02-12 16:09:00,51.9,51.4,29.74,SSW,202,2.9,2.9,98,0.00,,---,1.41,VWS V14.01,2013-02-12 22:09:00,
2013-02-12 16:14:00,51.7,51.2,29.74,ESE,112,1.3,1.6,98,0.00,,---,1.41,VWS V14.01,2013-02-12 22:14:00,
2013-02-12 16:19:00,51.9,51.4,29.74,ESE,112,0.0,0.0,98,0.00,,---,1.41,VWS V14.01,2013-02-12 22:19:00,
2013-02-12 16:24:00,51.7,51.2,29.74,ENE,68,2.0,2.2,98,0.00,,---,1.41,VWS V14.01,2013-02-12 22:24:00,
2013-02-12 16:29:00,51.7,51.2,29.74,ESE,112,0.0,0.9,98,0.00,,---,1.41,VWS V14.01,2013-02-12 22:29:00,
2013-02-12 16:34:00,51.5,51.0,29.74,SE,135,0.0,0.0,98,0.00,,---,1.41,VWS V14.01,2013-02-12 22:34:00,
2013-02-12 16:39:00,51.5,51.0,29.74,ESE,112,0.0,0.0,98,0.00,,---,1.41,VWS V14.01,2013-02-12 22:39:00,
2013-02-12 16:44:00,51.4,50.8,29.74,ESE,112,2.7,2.7,98,0.00,,---,1.41,VWS V14.01,2013-02-12 22:44:00,
2013-02-12 16:49:00,51.4,50.8,29.74,ENE,68,0.0,1.6,98,0.00,,---,1.41,VWS V14.01,2013-02-12 22:49:00,
2013-02-12 16:54:00,51.4,50.8,29.74,SSE,158,2.9,2.9,98,0.00,,---,1.41,VWS V14.01,2013-02-12 22:54:00,
2013-02-12 16:59:00,51.4,50.8,29.74,NE,45,0.0,0.0,98,0.00,,---,1.41,VWS V14.01,2013-02-12 22:59:00,
2013-02-12 17:04:00,51.4,50.8,29.74,ESE,112,2.7,3.1,98,0.00,,---,1.41,VWS V14.01,2013-02-12 23:04:00,
2013-02-12 17:09:00,51.2,50.6,29.74,North,0,0.0,2.9,98,0.00,,---,1.41,VWS V14.01,2013-02-12 23:09:00,
2013-02-12 17:14:00,51.2,50.6,29.74,SSE,158,0.0,0.0,98,0.00,,---,1.41,VWS V14.01,2013-02-12 23:14:00,
2013-02-12 17:19:00,51.2,50.6,29.74,SSE,158,3.4,4.3,98,0.00,,---,1.41,VWS V14.01,2013-02-12 23:19:00,
2013-02-12 17:24:00,51.2,50.6,29.74,SE,135,2.2,2.2,98,0.00,,---,1.41,VWS V14.01,2013-02-12 23:24:00,
2013-02-12 17:29:00,51.2,50.6,29.74,ESE,112,0.0,0.0,98,0.00,,---,1.41,VWS V14.01,2013-02-12 23:29:00,
2013-02-12 17:34:00,51.2,50.6,29.74,ESE,112,0.0,0.0,98,0.00,,---,1.41,VWS V14.01,2013-02-12 23:34:00,
2013-02-12 17:39:00,51.2,50.6,29.74,WSW,248,0.0,0.0,98,0.00,,---,1.41,VWS V14.01,2013-02-12 23:39:00,
2013-02-12 17:44:00,51.0,50.5,29.74,NE,45,2.5,3.4,98,0.00,,---,1.41,VWS V14.01,2013-02-12 23:44:00,
2013-02-12 17:49:00,51.0,50.5,29.74,NW,315,2.0,2.9,98,0.00,,---,1.41,VWS V14.01,2013-02-12 23:49:00,
2013-02-12 17:54:00,51.0,50.5,29.74,ESE,112,0.0,1.6,98,0.00,,---,1.41,VWS V14.01,2013-02-12 23:54:00,
2013-02-12 17:59:00,51.0,50.5,29.74,NNW,338,1.1,2.2,98,0.00,,---,1.41,VWS V14.01,2013-02-12 23:59:00,
2013-02-12 18:04:00,51.0,50.5,29.74,East,90,0.0,0.9,98,0.00,,---,1.41,VWS V14.01,2013-02-13 00:04:00,
2013-02-12 18:09:00,51.0,50.5,29.74,ENE,68,0.0,0.0,98,0.00,,---,1.41,VWS V14.01,2013-02-13 00:09:00,
2013-02-12 18:14:00,50.8,50.3,29.74,NE,45,0.0,0.0,98,0.00,,---,1.41,VWS V14.01,2013-02-13 00:14:00,
2013-02-12 18:19:00,50.8,50.3,29.74,NNW,338,0.0,0.0,98,0.00,,---,1.41,VWS V14.01,2013-02-13 00:19:00,
2013-02-12 18:24:00,50.8,50.3,29.74,WNW,292,3.6,3.6,98,0.00,,---,1.41,VWS V14.01,2013-02-13 00:24:00,
2013-02-12 18:29:00,50.8,50.3,29.76,NNE,22,2.2,2.2,98,0.00,,---,1.41,VWS V14.01,2013-02-13 00:29:00,
2013-02-12 18:34:00,50.8,50.3,29.76,North,0,2.7,2.7,98,0.00,,---,1.41,VWS V14.01,2013-02-13 00:34:00,
2013-02-12 18:39:00,50.8,50.3,29.76,NNE,22,0.0,0.0,98,0.00,,---,1.41,VWS V14.01,2013-02-13 00:39:00,
2013-02-12 18:44:00,50.8,50.3,29.74,NNW,338,1.6,1.6,98,0.00,,---,1.41,VWS V14.01,2013-02-13 00:44:00,
2013-02-12 18:49:00,50.6,50.1,29.74,NNW,338,0.0,0.0,98,0.00,,---,1.41,VWS V14.01,2013-02-13 00:49:00,
2013-02-12 18:54:00,50.8,50.3,29.74,North,0,0.0,2.7,98,0.00,,---,1.41,VWS V14.01,2013-02-13 00:54:00,
2013-02-12 18:59:00,50.8,50.3,29.76,ENE,68,2.2,2.2,98,0.00,,---,1.41,VWS V14.01,2013-02-13 00:59:00,
2013-02-12 19:04:00,50.6,50.1,29.76,NE,45,0.0,0.0,98,0.05,,---,1.46,VWS V14.01,2013-02-13 01:04:00,
2013-02-12 19:09:00,50.6,50.1,29.76,NW,315,0.9,2.0,98,0.05,,---,1.46,VWS V14.01,2013-02-13 01:09:00,
2013-02-12 19:14:00,50.6,50.1,29.76,NE,45,0.0,0.0,98,0.05,,---,1.46,VWS V14.01,2013-02-13 01:14:00,
2013-02-12 19:19:00,50.6,50.1,29.76,NE,45,0.0,0.0,98,0.05,,---,1.46,VWS V14.01,2013-02-13 01:19:00,
2013-02-12 19:24:00,50.6,50.1,29.76,ESE,112,0.0,0.0,98,0.05,,---,1.46,VWS V14.01,2013-02-13 01:24:00,
2013-02-12 19:29:00,50.5,49.9,29.74,NE,45,0.0,0.0,98,0.05,,---,1.46,VWS V14.01,2013-02-13 01:29:00,
2013-02-12 19:34:00,50.5,49.9,29.74,ENE,68,0.0,0.0,98,0.05,,---,1.46,VWS V14.01,2013-02-13 01:34:00,
2013-02-12 19:39:00,50.3,49.7,29.74,ESE,112,0.0,0.0,98,0.05,,---,1.46,VWS V14.01,2013-02-13 01:39:00,
2013-02-12 19:44:00,50.3,49.7,29.74,SE,135,0.0,0.0,98,0.05,,---,1.46,VWS V14.01,2013-02-13 01:44:00,
2013-02-12 19:49:00,50.3,49.7,29.74,ESE,112,0.0,0.0,98,0.05,,---,1.46,VWS V14.01,2013-02-13 01:49:00,
2013-02-12 19:54:00,50.3,49.7,29.74,ESE,112,0.0,0.0,98,0.05,,---,1.46,VWS V14.01,2013-02-13 01:54:00,
2013-02-12 19:59:00,50.3,49.7,29.74,East,90,0.0,0.0,98,0.05,,---,1.46,VWS V14.01,2013-02-13 01:59:00,
2013-02-12 20:04:00,50.1,49.6,29.74,NNW,338,1.1,1.1,98,0.00,,---,1.46,VWS V14.01,2013-02-13 02:04:00,
2013-02-12 20:09:00,50.1,49.6,29.74,East,90,0.0,0.0,98,0.00,,---,1.46,VWS V14.01,2013-02-13 02:09:00,
2013-02-12 20:14:00,49.9,49.4,29.74,West,270,0.0,0.0,98,0.00,,---,1.46,VWS V14.01,2013-02-13 02:14:00,
2013-02-12 20:19:00,49.9,49.4,29.74,ENE,68,0.0,0.0,98,0.00,,---,1.46,VWS V14.01,2013-02-13 02:19:00,
2013-02-12 20:24:00,49.9,49.4,29.74,ESE,112,0.0,0.0,98,0.00,,---,1.46,VWS V14.01,2013-02-13 02:24:00,
2013-02-12 20:29:00,49.9,49.4,29.74,NE,45,0.0,0.0,98,0.00,,---,1.46,VWS V14.01,2013-02-13 02:29:00,
2013-02-12 20:35:00,49.9,49.4,29.74,East,90,0.0,1.1,98,0.00,,---,1.46,VWS V14.01,2013-02-13 02:35:00,
2013-02-12 20:40:00,49.9,49.4,29.74,SE,135,0.0,0.0,98,0.00,,---,1.46,VWS V14.01,2013-02-13 02:40:00,
2013-02-12 20:45:00,49.7,49.2,29.74,ESE,112,0.0,0.0,98,0.00,,---,1.46,VWS V14.01,2013-02-13 02:45:00,
2013-02-12 20:50:00,49.7,49.2,29.74,WNW,292,0.0,0.0,98,0.00,,---,1.46,VWS V14.01,2013-02-13 02:50:00,
2013-02-12 20:55:00,49.9,49.4,29.74,NW,315,0.0,0.0,98,0.00,,---,1.46,VWS V14.01,2013-02-13 02:55:00,
2013-02-12 21:00:00,49.9,49.4,29.74,NW,315,0.0,0.0,98,0.00,,---,1.46,VWS V14.01,2013-02-13 03:00:00,
2013-02-12 21:05:00,49.9,49.4,29.74,WNW,292,0.0,0.0,98,0.00,,---,1.46,VWS V14.01,2013-02-13 03:05:00,
2013-02-12 21:10:00,49.9,49.4,29.74,WNW,292,0.0,0.0,98,0.00,,---,1.46,VWS V14.01,2013-02-13 03:10:00,
2013-02-12 21:15:00,49.9,49.4,29.74,WNW,292,0.0,0.0,98,0.00,,---,1.46,VWS V14.01,2013-02-13 03:15:00,
2013-02-12 21:20:00,49.9,49.4,29.74,WNW,292,2.2,3.1,98,0.00,,---,1.46,VWS V14.01,2013-02-13 03:20:00,
2013-02-12 21:25:00,49.9,49.4,29.74,WNW,292,2.5,2.5,98,0.00,,---,1.46,VWS V14.01,2013-02-13 03:25:00,
2013-02-12 21:30:00,50.1,49.6,29.74,NNE,22,0.0,0.0,98,0.00,,---,1.46,VWS V14.01,2013-02-13 03:30:00,
2013-02-12 21:35:00,50.1,49.6,29.74,WNW,292,0.0,0.0,98,0.00,,---,1.46,VWS V14.01,2013-02-13 03:35:00,
2013-02-12 21:40:00,50.1,49.6,29.74,NNW,338,0.0,0.0,98,0.00,,---,1.46,VWS V14.01,2013-02-13 03:40:00,
2013-02-12 21:45:00,50.1,49.6,29.76,SSE,158,0.0,1.1,98,0.00,,---,1.46,VWS V14.01,2013-02-13 03:45:00,
2013-02-12 21:50:00,50.1,49.6,29.76,NNE,22,0.0,1.6,98,0.00,,---,1.46,VWS V14.01,2013-02-13 03:50:00,
2013-02-12 21:55:00,50.1,49.6,29.76,NW,315,0.0,0.0,98,0.00,,---,1.46,VWS V14.01,2013-02-13 03:55:00,
2013-02-12 22:00:00,50.1,49.6,29.76,NW,315,0.0,0.0,98,0.00,,---,1.46,VWS V14.01,2013-02-13 04:00:00,
2013-02-12 22:05:00,50.3,49.7,29.76,SE,135,0.0,0.0,98,0.00,,---,1.46,VWS V14.01,2013-02-13 04:05:00,
2013-02-12 22:10:00,50.3,49.7,29.76,ESE,112,0.0,0.0,98,0.00,,---,1.46,VWS V14.01,2013-02-13 04:10:00,
2013-02-12 22:15:00,50.3,49.7,29.76,ESE,112,0.0,0.0,98,0.00,,---,1.46,VWS V14.01,2013-02-13 04:15:00,
2013-02-12 22:20:00,50.3,49.7,29.76,ESE,112,0.0,0.0,98,0.00,,---,1.46,VWS V14.01,2013-02-13 04:20:00,
2013-02-12 22:25:00,50.3,49.7,29.76,WSW,248,0.0,0.0,98,0.00,,---,1.46,VWS V14.01,2013-02-13 04:25:00,
2013-02-12 22:30:00,50.5,49.9,29.76,WSW,248,0.0,0.0,98,0.00,,---,1.46,VWS V14.01,2013-02-13 04:30:00,
2013-02-12 22:35:00,50.5,49.9,29.76,SSW,202,0.0,0.0,98,0.00,,---,1.46,VWS V14.01,2013-02-13 04:35:00,
2013-02-12 22:40:00,50.5,49.9,29.76,SSE,158,0.0,0.0,98,0.00,,---,1.46,VWS V14.01,2013-02-13 04:40:00,
2013-02-12 22:45:00,50.5,49.9,29.76,South,180,0.0,0.0,98,0.00,,---,1.46,VWS V14.01,2013-02-13 04:45:00,
2013-02-12 22:50:00,50.5,49.9,29.76,SE,135,0.0,0.0,98,0.00,,---,1.46,VWS V14.01,2013-02-13 04:50:00,
2013-02-12 22:55:00,50.5,49.9,29.76,SSE,158,0.0,0.0,98,0.00,,---,1.46,VWS V14.01,2013-02-13 04:55:00,
2013-02-12 23:00:00,50.5,49.9,29.76,SSW,202,0.0,0.0,98,0.00,,---,1.46,VWS V14.01,2013-02-13 05:00:00,
2013-02-12 23:05:00,50.5,49.9,29.76,SSW,202,0.0,1.1,98,0.00,,---,1.46,VWS V14.01,2013-02-13 05:05:00,
2013-02-12 23:10:00,50.5,49.9,29.76,NNE,22,0.0,0.0,98,0.00,,---,1.46,VWS V14.01,2013-02-13 05:10:00,
2013-02-12 23:15:00,50.6,50.1,29.76,WSW,248,0.0,0.0,98,0.00,,---,1.46,VWS V14.01,2013-02-13 05:15:00,
2013-02-12 23:20:00,50.6,50.1,29.76,SSW,202,0.0,0.0,98,0.00,,---,1.46,VWS V14.01,2013-02-13 05:20:00,
2013-02-12 23:25:00,50.6,50.1,29.76,SSW,202,0.0,0.0,98,0.00,,---,1.46,VWS V14.01,2013-02-13 05:25:00,
2013-02-12 23:30:00,50.6,50.1,29.76,SSW,202,0.0,1.3,98,0.00,,---,1.46,VWS V14.01,2013-02-13 05:30:00,
2013-02-12 23:35:00,50.6,50.1,29.76,SSE,158,0.0,0.0,98,0.00,,---,1.46,VWS V14.01,2013-02-13 05:35:00,
2013-02-12 23:40:00,50.8,50.3,29.76,SSW,202,0.0,1.3,98,0.00,,---,1.46,VWS V14.01,2013-02-13 05:40:00,
2013-02-12 23:45:00,50.8,50.3,29.76,WSW,248,0.0,0.0,98,0.00,,---,1.46,VWS V14.01,2013-02-13 05:45:00,
2013-02-12 23:50:00,50.8,50.3,29.76,ENE,68,0.0,2.2,98,0.00,,---,1.46,VWS V14.01,2013-02-13 05:50:00,
2013-02-12 23:55:00,51.0,50.5,29.76,WSW,248,2.0,2.0,98,0.00,,---,1.46,VWS V14.01,2013-02-13 05:55:00,